7AR6 weather

RBC Airport
Jonesboro, Arkansas, United States

Public forecast

Using degrees Fahrenheit for public forecast. Weather courtesy of forecast.io.

Closest aviation weather report (METAR) to RBC Airport

Report is more than 6 hours old.

Closest report is Jonesboro Municipal Airport, 7.9 nm (14.6 km) ENE. Retrieved 2020/07/07 07:53 UTC (3 days ago):

KJBR 070753Z AUTO 00000KT 10SM CLR 26/23 A2995 RMK AO2 SLP138 T02560228 TSNO

Closest aviation forecast (TAF) to RBC Airport

Closest forecast is Jonesboro Municipal Airport, 7.9 nm (14.6 km) ENE. Retrieved 2020/07/10 12:33 UTC (0 seconds ago):

TAF KJBR 101129Z 1012/1112 30005KT P6SM FEW250 FM101600 34006KT P6SM SKC FM102200 31006KT P6SM FEW060 FEW250 FM110000 00000KT P6SM SKC AMD NOT SKED